KGFA/GFA METAR and TAF weather

Enter ICAO airport designator
Station Type Date Time Source
KGFA METAR 2020/01/26 00:58 UTC NOAA

KGFA 260058Z AUTO 23008KT 10SM BKN170 02/M07 A2996 RMK AO2 SLP172 T00151068 $


Station Type Date Time Source
KGFA Decoded METAR 2020/01/26 00:58 UTC NOAA

Malmstrom Air Force Base, MT, United States (KGFA) 47-30N 111-11W
Jan 25, 2020 - 07:58 PM EST / 2020.01.26 0058 UTC
Wind: from the SW (230 degrees) at 9 MPH (8 KT):0
Visibility: 10 mile(s):0
Sky conditions: mostly cloudy
Temperature: 34.7 F (1.5 C)
Windchill: 28 F (-2 C):1
Dew Point: 19.8 F (-6.8 C)
Relative Humidity: 53%
Pressure (altimeter): 29.96 in. Hg (1014 hPa)
ob: KGFA 260058Z AUTO 23008KT 10SM BKN170 02/M07 A2996 RMK AO2 SLP172 T00151068
cycle: 1

Station Type Date Time Source
KGFA TAF 2020/01/25 19:07 UTC NOAA

TAF KGFA 251900Z 2519/2701 22015G25KT 9999 SCT080 QNH2990INS
BECMG 2601/2602 24012KT 9999 FEW100 QNH2995INS TX09/2521Z TN01/2604Z

Example: see airport list